createdAt,value
2019-04-09T00:00:28.656Z,0
2019-04-09T00:01:08.788Z,0
2019-04-09T00:01:49.207Z,0
2019-04-09T00:02:29.755Z,0
2019-04-09T00:03:10.078Z,0
2019-04-09T00:03:50.550Z,0
2019-04-09T00:04:30.928Z,0
2019-04-09T00:05:12.339Z,0
2019-04-09T00:05:52.086Z,0
2019-04-09T00:06:32.179Z,0
2019-04-09T00:07:12.665Z,0
2019-04-09T00:07:59.998Z,0
2019-04-09T00:08:33.688Z,0
2019-04-09T00:09:13.837Z,0
2019-04-09T00:09:54.259Z,0
2019-04-09T00:10:34.912Z,0
2019-04-09T00:11:15.698Z,0
2019-04-09T00:11:56.154Z,0
2019-04-09T00:12:35.988Z,0
2019-04-09T00:13:16.981Z,0
2019-04-09T00:13:57.415Z,0
2019-04-09T00:14:37.294Z,0
2019-04-09T00:15:17.742Z,0
2019-04-09T00:15:58.505Z,0
2019-04-09T00:16:39.231Z,0
2019-04-09T00:17:19.707Z,0
2019-04-09T00:17:59.546Z,0
2019-04-09T00:18:39.787Z,0
2019-04-09T00:19:20.990Z,0
2019-04-09T00:20:00.822Z,0
2019-04-09T00:20:41.402Z,0
2019-04-09T00:21:21.448Z,0
2019-04-09T00:22:01.932Z,0
2019-04-09T00:22:43.335Z,0
2019-04-09T00:23:22.736Z,0
2019-04-09T00:24:03.158Z,0
2019-04-09T00:24:43.570Z,0
2019-04-09T00:25:23.983Z,0
2019-04-09T00:26:04.446Z,0
2019-04-09T00:26:50.220Z,0
2019-04-09T00:27:26.236Z,0
2019-04-09T00:28:05.721Z,0
2019-04-09T00:28:46.090Z,0
2019-04-09T00:29:26.973Z,0
2019-04-09T00:30:09.706Z,0
2019-04-09T00:30:47.557Z,0
2019-04-09T00:31:27.804Z,0
2019-04-09T00:32:08.193Z,0
2019-04-09T00:32:48.762Z,0
2019-04-09T00:33:29.023Z,0
2019-04-09T00:34:09.451Z,0
2019-04-09T00:34:49.886Z,0
2019-04-09T00:35:30.382Z,0
2019-04-09T00:36:11.084Z,0
2019-04-09T00:36:51.171Z,0
2019-04-09T00:37:31.602Z,0
2019-04-09T00:38:12.314Z,0
2019-04-09T00:38:52.428Z,0
2019-04-09T00:39:32.857Z,0
2019-04-09T00:40:13.473Z,0
2019-04-09T00:40:53.715Z,0
2019-04-09T00:41:34.120Z,0
2019-04-09T00:42:14.537Z,0
2019-04-09T00:42:54.946Z,0
2019-04-09T00:43:35.373Z,0
2019-04-09T00:44:16.564Z,0
2019-04-09T00:44:56.260Z,0
2019-04-09T00:45:36.630Z,0
2019-04-09T00:46:17.761Z,0
2019-04-09T00:46:57.561Z,0
2019-04-09T00:47:38.363Z,0
2019-04-09T00:48:18.314Z,0
2019-04-09T00:48:58.801Z,0
2019-04-09T00:49:39.180Z,0
2019-04-09T00:50:19.603Z,0
2019-04-09T00:51:00.043Z,0
2019-04-09T00:51:41.445Z,0
2019-04-09T00:52:20.882Z,0
2019-04-09T00:53:01.303Z,0
2019-04-09T00:53:42.547Z,0
2019-04-09T00:54:22.149Z,0
2019-04-09T00:55:02.586Z,0
2019-04-09T00:55:43.703Z,0
2019-04-09T00:56:23.431Z,0
2019-04-09T00:57:07.838Z,0
2019-04-09T00:57:45.111Z,0
2019-04-09T00:58:24.658Z,0
2019-04-09T00:59:05.526Z,0
2019-04-09T00:59:46.464Z,0
2019-04-09T01:00:25.910Z,0
2019-04-09T01:01:06.326Z,0
2019-04-09T01:01:46.730Z,0
2019-04-09T01:02:27.142Z,0
2019-04-09T01:03:07.747Z,0
2019-04-09T01:03:48.578Z,0
2019-04-09T01:04:28.408Z,0
2019-04-09T01:05:09.073Z,0
2019-04-09T01:05:49.754Z,0
2019-04-09T01:06:29.707Z,0
2019-04-09T01:07:10.302Z,0
2019-04-09T01:07:50.549Z,0
2019-04-09T01:08:31.589Z,0
2019-04-09T01:09:12.427Z,0
2019-04-09T01:09:51.861Z,0
2019-04-09T01:10:32.549Z,0
2019-04-09T01:11:12.948Z,0
2019-04-09T01:11:54.119Z,0
2019-04-09T01:12:34.534Z,0
2019-04-09T01:13:14.090Z,0
2019-04-09T01:13:55.966Z,0
2019-04-09T01:14:35.754Z,0
2019-04-09T01:15:16.220Z,0
2019-04-09T01:15:55.613Z,0
2019-04-09T01:16:36.127Z,0
2019-04-09T01:17:16.491Z,0
2019-04-09T01:17:56.891Z,0
2019-04-09T01:18:37.336Z,0
2019-04-09T01:19:20.353Z,0
2019-04-09T01:19:58.530Z,0
2019-04-09T01:20:38.579Z,0
2019-04-09T01:21:19.012Z,0
2019-04-09T01:21:59.698Z,0
2019-04-09T01:22:39.852Z,0
2019-04-09T01:23:20.266Z,0
2019-04-09T01:24:00.698Z,0
2019-04-09T01:24:41.745Z,0
2019-04-09T01:25:22.255Z,0
2019-04-09T01:26:02.088Z,0
2019-04-09T01:26:42.736Z,0
2019-04-09T01:27:24.408Z,0
2019-04-09T01:28:04.167Z,0
2019-04-09T01:28:44.727Z,0
2019-04-09T01:29:24.420Z,0
2019-04-09T01:30:05.394Z,0
2019-04-09T01:30:45.887Z,0
2019-04-09T01:31:25.605Z,0
2019-04-09T01:32:06.695Z,0
2019-04-09T01:32:47.067Z,0
2019-04-09T01:33:26.810Z,0
2019-04-09T01:34:07.111Z,0
2019-04-09T01:34:47.523Z,0
2019-04-09T01:35:28.898Z,0
2019-04-09T01:36:08.364Z,0
2019-04-09T01:36:48.785Z,0
2019-04-09T01:37:29.213Z,0
2019-04-09T01:38:09.646Z,0
2019-04-09T01:38:50.050Z,0
2019-04-09T01:39:30.538Z,0
2019-04-09T01:40:10.898Z,0
2019-04-09T01:40:52.201Z,0
2019-04-09T01:41:31.743Z,0
2019-04-09T01:42:12.908Z,0
2019-04-09T01:42:53.694Z,0
2019-04-09T01:43:33.067Z,0
2019-04-09T01:44:13.566Z,0
2019-04-09T01:44:54.517Z,0
2019-04-09T01:45:35.300Z,0
2019-04-09T01:46:14.733Z,0
2019-04-09T01:46:55.635Z,0
2019-04-09T01:47:36.467Z,0
2019-04-09T01:48:15.995Z,0
2019-04-09T01:48:56.423Z,0
2019-04-09T01:49:36.846Z,0
2019-04-09T01:50:17.273Z,0
2019-04-09T01:50:57.916Z,0
2019-04-09T01:51:38.124Z,0
2019-04-09T01:52:18.552Z,0
2019-04-09T01:52:58.975Z,0
2019-04-09T01:53:39.472Z,0
2019-04-09T01:54:19.891Z,0
2019-04-09T01:55:00.356Z,0
2019-04-09T01:55:41.814Z,0
2019-04-09T01:56:21.139Z,0
2019-04-09T01:57:01.574Z,0
2019-04-09T01:57:42.047Z,0
2019-04-09T01:58:22.550Z,0
2019-04-09T01:59:02.868Z,0
2019-04-09T01:59:43.255Z,0
2019-04-09T02:00:23.681Z,0
2019-04-09T02:01:05.842Z,0
2019-04-09T02:01:44.530Z,0
2019-04-09T02:02:24.942Z,0
2019-04-09T02:03:05.378Z,0
2019-04-09T02:03:45.799Z,0
2019-04-09T02:04:27.063Z,0
2019-04-09T02:05:06.906Z,0
2019-04-09T02:05:47.750Z,0
2019-04-09T02:06:27.481Z,0
2019-04-09T02:07:08.117Z,0
2019-04-09T02:07:48.859Z,0
2019-04-09T02:08:28.769Z,0
2019-04-09T02:09:09.289Z,0
2019-04-09T02:09:49.851Z,0
2019-04-09T02:10:30.043Z,0
2019-04-09T02:11:10.471Z,0
2019-04-09T02:11:50.907Z,0
2019-04-09T02:12:31.323Z,0
2019-04-09T02:13:11.800Z,0
2019-04-09T02:13:53.075Z,0
2019-04-09T02:14:32.591Z,0
2019-04-09T02:15:13.023Z,0
2019-04-09T02:15:54.047Z,0
2019-04-09T02:16:34.893Z,0
2019-04-09T02:17:14.298Z,0
2019-04-09T02:17:55.310Z,0
2019-04-09T02:18:36.098Z,0
2019-04-09T02:19:15.566Z,0
2019-04-09T02:19:56.448Z,0
2019-04-09T02:20:36.401Z,0
2019-04-09T02:21:16.841Z,0
2019-04-09T02:21:57.635Z,0
2019-04-09T02:22:38.422Z,0
2019-04-09T02:23:18.129Z,0
2019-04-09T02:23:58.810Z,0
2019-04-09T02:24:39.003Z,0
2019-04-09T02:25:19.436Z,0
2019-04-09T02:25:59.865Z,0
2019-04-09T02:26:40.293Z,0
2019-04-09T02:27:21.037Z,0
2019-04-09T02:28:01.121Z,0
2019-04-09T02:28:41.976Z,0
2019-04-09T02:29:22.707Z,0
2019-04-09T02:30:04.072Z,0
2019-04-09T02:30:43.803Z,0
2019-04-09T02:31:23.269Z,0
2019-04-09T02:32:03.959Z,0
2019-04-09T02:32:44.668Z,0
2019-04-09T02:33:25.526Z,0
2019-04-09T02:34:04.961Z,0
2019-04-09T02:34:45.771Z,0
2019-04-09T02:35:26.301Z,0
2019-04-09T02:36:06.256Z,0
2019-04-09T02:36:46.669Z,0
2019-04-09T02:37:27.524Z,0
2019-04-09T02:38:08.265Z,0
2019-04-09T02:38:48.250Z,0
2019-04-09T02:39:28.693Z,0
2019-04-09T02:40:09.345Z,0
2019-04-09T02:40:50.097Z,0
2019-04-09T02:41:29.628Z,0
2019-04-09T02:42:10.444Z,0
2019-04-09T02:42:51.262Z,0
2019-04-09T02:43:30.914Z,0
2019-04-09T02:44:11.340Z,0
2019-04-09T02:44:52.166Z,0
2019-04-09T02:45:33.072Z,0
2019-04-09T02:46:12.617Z,0
2019-04-09T02:46:53.316Z,0
2019-04-09T02:47:34.031Z,0
2019-04-09T02:48:14.627Z,0
2019-04-09T02:48:55.073Z,0
2019-04-09T02:49:35.130Z,0
2019-04-09T02:50:15.893Z,0
2019-04-09T02:50:55.664Z,0
2019-04-09T02:51:36.099Z,0
2019-04-09T02:52:16.536Z,0
2019-04-09T02:52:56.947Z,0
2019-04-09T02:53:37.353Z,0
2019-04-09T02:54:18.570Z,0
2019-04-09T02:54:58.339Z,0
2019-04-09T02:55:38.805Z,0
2019-04-09T02:56:18.980Z,0
2019-04-09T02:56:59.376Z,0
2019-04-09T02:57:48.846Z,0
2019-04-09T02:58:20.472Z,0
2019-04-09T02:59:01.205Z,0
2019-04-09T02:59:41.053Z,0
2019-04-09T03:00:21.712Z,0
2019-04-09T03:01:02.388Z,0
2019-04-09T03:01:42.892Z,0
2019-04-09T03:02:22.762Z,0
2019-04-09T03:03:03.190Z,0
2019-04-09T03:03:43.940Z,0
2019-04-09T03:04:24.783Z,0
2019-04-09T03:05:04.422Z,0
2019-04-09T03:05:45.011Z,0
2019-04-09T03:06:25.778Z,0
2019-04-09T03:07:05.705Z,0
2019-04-09T03:07:46.161Z,0
2019-04-09T03:08:26.859Z,0
2019-04-09T03:09:06.972Z,0
2019-04-09T03:09:47.394Z,0
2019-04-09T03:10:27.825Z,0
2019-04-09T03:11:08.325Z,0
2019-04-09T03:11:48.679Z,0
2019-04-09T03:12:29.341Z,0
2019-04-09T03:13:10.106Z,0
2019-04-09T03:13:49.937Z,0
2019-04-09T03:14:30.595Z,0
2019-04-09T03:15:11.419Z,0
2019-04-09T03:15:52.128Z,0
2019-04-09T03:16:31.557Z,0
2019-04-09T03:17:12.002Z,0
2019-04-09T03:17:52.775Z,0
2019-04-09T03:18:33.563Z,0
2019-04-09T03:19:14.247Z,0
2019-04-09T03:19:53.822Z,0
2019-04-09T03:20:34.523Z,0
2019-04-09T03:21:15.272Z,0
2019-04-09T03:21:55.047Z,0
2019-04-09T03:22:35.676Z,0
2019-04-09T03:23:16.458Z,0
2019-04-09T03:23:56.309Z,0
2019-04-09T03:24:36.840Z,0
2019-04-09T03:25:17.165Z,0
2019-04-09T03:25:57.590Z,0
2019-04-09T03:26:38.692Z,0
2019-04-09T03:27:18.457Z,0
2019-04-09T03:28:04.837Z,0
2019-04-09T03:28:39.299Z,0
2019-04-09T03:29:20.272Z,0
2019-04-09T03:30:00.099Z,0
2019-04-09T03:30:41.223Z,0
2019-04-09T03:31:22.197Z,0
2019-04-09T03:32:03.183Z,0
2019-04-09T03:32:42.369Z,0
2019-04-09T03:33:22.498Z,0
2019-04-09T03:34:03.957Z,0
2019-04-09T03:34:43.373Z,0
2019-04-09T03:35:23.510Z,0
2019-04-09T03:36:04.782Z,0
2019-04-09T03:36:44.358Z,0
2019-04-09T03:37:24.759Z,0
2019-04-09T03:38:06.031Z,0
2019-04-09T03:38:45.625Z,0
2019-04-09T03:39:26.053Z,0
2019-04-09T03:40:07.068Z,0
2019-04-09T03:40:46.901Z,0
2019-04-09T03:41:27.318Z,0
2019-04-09T03:42:08.017Z,0
2019-04-09T03:42:48.805Z,0
2019-04-09T03:43:29.501Z,0
2019-04-09T03:44:09.060Z,0
2019-04-09T03:44:49.734Z,0
2019-04-09T03:45:30.984Z,0
2019-04-09T03:46:10.352Z,0
2019-04-09T03:46:50.761Z,0
2019-04-09T03:47:32.100Z,0
2019-04-09T03:48:11.498Z,0
2019-04-09T03:48:52.480Z,0
2019-04-09T03:49:32.325Z,0
2019-04-09T03:50:12.911Z,0
2019-04-09T03:50:53.192Z,0
2019-04-09T03:51:33.612Z,0
2019-04-09T03:52:14.341Z,0
2019-04-09T03:52:54.496Z,0
2019-04-09T03:53:35.058Z,0
2019-04-09T03:54:15.354Z,0
2019-04-09T03:54:55.778Z,0
2019-04-09T03:55:36.367Z,0
2019-04-09T03:56:16.626Z,0
2019-04-09T03:56:57.252Z,0
2019-04-09T03:57:38.286Z,0
2019-04-09T03:58:22.001Z,0
2019-04-09T03:58:59.142Z,0
2019-04-09T03:59:39.566Z,0
2019-04-09T04:00:20.706Z,0
2019-04-09T04:01:02.062Z,0
2019-04-09T04:01:42.472Z,0
2019-04-09T04:02:22.896Z,0
2019-04-09T04:03:03.329Z,0
2019-04-09T04:03:44.721Z,0
2019-04-09T04:04:24.187Z,0
2019-04-09T04:05:05.327Z,0
2019-04-09T04:05:45.052Z,0
2019-04-09T04:06:25.890Z,0
2019-04-09T04:07:06.677Z,0
2019-04-09T04:07:46.468Z,0
2019-04-09T04:08:26.899Z,0
2019-04-09T04:09:07.318Z,0
2019-04-09T04:09:47.767Z,0
2019-04-09T04:10:29.915Z,0
2019-04-09T04:11:11.194Z,0
2019-04-09T04:11:52.139Z,0
2019-04-09T04:12:31.725Z,0
2019-04-09T04:13:12.674Z,0
2019-04-09T04:13:53.554Z,0
2019-04-09T04:14:34.783Z,0
2019-04-09T04:15:17.959Z,0
2019-04-09T04:15:56.116Z,0
2019-04-09T04:16:38.033Z,0
2019-04-09T04:17:18.169Z,0
2019-04-09T04:18:01.112Z,0
2019-04-09T04:18:43.779Z,0
2019-04-09T04:19:23.898Z,0
2019-04-09T04:20:04.492Z,0
2019-04-09T04:20:45.359Z,0
2019-04-09T04:21:25.521Z,0
2019-04-09T04:22:05.577Z,0
2019-04-09T04:22:46.152Z,0
2019-04-09T04:23:26.979Z,0
2019-04-09T04:24:07.807Z,0
2019-04-09T04:24:47.369Z,0
2019-04-09T04:25:28.555Z,0
2019-04-09T04:26:09.553Z,0
2019-04-09T04:26:49.280Z,0
2019-04-09T04:27:29.822Z,0
2019-04-09T05:07:21.471Z,0
2019-04-09T05:08:01.685Z,0
2019-04-09T05:08:42.111Z,0
2019-04-09T05:09:22.508Z,0
2019-04-09T05:10:03.470Z,0
2019-04-09T05:10:43.849Z,0
2019-04-09T05:11:24.309Z,0
2019-04-09T05:12:04.265Z,0
2019-04-09T05:12:44.679Z,0
2019-04-09T05:13:25.095Z,0
2019-04-09T05:14:07.568Z,0
2019-04-09T05:14:47.916Z,0
2019-04-09T05:15:28.351Z,0
2019-04-09T05:16:08.766Z,0
2019-04-09T05:16:49.202Z,0
2019-04-09T05:17:29.609Z,0
2019-04-09T05:18:11.114Z,0
2019-04-09T05:18:51.398Z,0
2019-04-09T05:19:30.925Z,0
2019-04-09T05:20:11.361Z,0
2019-04-09T05:20:53.386Z,5
2019-04-09T05:21:32.908Z,5
2019-04-09T05:22:13.356Z,5
2019-04-09T05:22:54.772Z,5
2019-04-09T05:23:34.276Z,5
2019-04-09T05:24:14.725Z,5
2019-04-09T05:24:55.154Z,5
2019-04-09T05:25:35.626Z,5
2019-04-09T05:26:16.011Z,5
2019-04-09T05:26:56.439Z,5
2019-04-09T05:27:37.769Z,5
2019-04-09T05:28:17.279Z,5
2019-04-09T05:29:03.606Z,5
2019-04-09T05:29:38.175Z,5
2019-04-09T05:30:18.614Z,5
2019-04-09T05:30:59.053Z,5
2019-04-09T05:31:41.195Z,5
2019-04-09T05:32:21.538Z,5
2019-04-09T05:33:03.158Z,5
2019-04-09T05:33:42.796Z,5
2019-04-09T05:34:23.353Z,5
2019-04-09T05:35:05.449Z,5
2019-04-09T05:35:45.419Z,5
2019-04-09T05:36:27.766Z,5
2019-04-09T05:37:08.681Z,5
2019-04-09T05:37:49.391Z,5
2019-04-09T05:38:30.141Z,5
2019-04-09T05:39:11.271Z,5
2019-04-09T05:39:52.614Z,5
2019-04-09T05:40:33.182Z,5
2019-04-09T05:41:15.528Z,5
2019-04-09T05:41:55.189Z,5
2019-04-09T05:42:36.263Z,5
2019-04-09T05:43:18.208Z,5
2019-04-09T05:43:58.883Z,10
2019-04-09T05:44:39.801Z,10
2019-04-09T05:45:21.541Z,10
2019-04-09T05:46:01.894Z,10
2019-04-09T05:46:42.285Z,10
2019-04-09T05:47:22.719Z,10
2019-04-09T05:48:03.302Z,10
2019-04-09T05:48:43.601Z,10
2019-04-09T05:49:24.228Z,10
2019-04-09T05:50:04.630Z,10
2019-04-09T05:50:45.776Z,10
2019-04-09T05:51:25.919Z,10
2019-04-09T05:52:06.515Z,10
2019-04-09T05:52:47.099Z,10
2019-04-09T05:53:28.181Z,10
2019-04-09T05:54:07.795Z,10
2019-04-09T05:54:48.247Z,10
2019-04-09T05:55:28.860Z,10
2019-04-09T05:56:09.591Z,10
2019-04-09T05:56:49.390Z,10
2019-04-09T05:57:30.574Z,10
2019-04-09T05:58:10.937Z,10
2019-04-09T05:59:01.210Z,15
2019-04-09T05:59:31.113Z,15
2019-04-09T06:00:12.178Z,15
2019-04-09T06:00:52.680Z,15
2019-04-09T06:01:32.533Z,15
2019-04-09T06:02:13.516Z,15
2019-04-09T06:02:54.427Z,15
2019-04-09T06:03:34.841Z,15
2019-04-09T06:04:14.518Z,15
2019-04-09T06:04:54.917Z,15
2019-04-09T06:05:36.452Z,15
2019-04-09T06:06:17.658Z,15
2019-04-09T06:06:57.049Z,15
2019-04-09T06:07:37.570Z,15
2019-04-09T06:08:18.283Z,15
2019-04-09T06:08:58.998Z,15
2019-04-09T06:09:39.404Z,15
2019-04-09T06:10:19.757Z,20
2019-04-09T06:10:59.928Z,20
2019-04-09T06:11:40.516Z,20
2019-04-09T06:12:22.622Z,20
2019-04-09T06:13:03.200Z,20
2019-04-09T06:13:44.427Z,20
2019-04-09T06:14:27.314Z,20
2019-04-09T06:15:08.581Z,20
2019-04-09T06:15:49.409Z,20
2019-04-09T06:16:32.227Z,15
2019-04-09T06:17:13.432Z,15
2019-04-09T06:17:54.266Z,15
2019-04-09T06:18:34.660Z,15
2019-04-09T06:19:16.223Z,15
2019-04-09T06:19:57.278Z,15
2019-04-09T06:20:38.193Z,15
2019-04-09T06:21:23.935Z,15
2019-04-09T06:21:58.997Z,15
2019-04-09T06:22:38.840Z,15
2019-04-09T06:23:20.209Z,15
2019-04-09T06:24:00.474Z,15
2019-04-09T06:24:40.653Z,15
2019-04-09T06:25:22.783Z,15
2019-04-09T06:26:02.214Z,15
2019-04-09T06:26:42.319Z,15
2019-04-09T06:27:22.438Z,15
2019-04-09T06:28:03.798Z,15
2019-04-09T06:28:44.120Z,15
2019-04-09T06:29:25.005Z,15
2019-04-09T06:30:04.931Z,15
2019-04-09T06:30:46.048Z,15
2019-04-09T06:31:26.494Z,15
2019-04-09T06:32:07.198Z,15
2019-04-09T06:32:47.812Z,15
2019-04-09T06:33:28.132Z,15
2019-04-09T06:34:08.897Z,15
2019-04-09T06:34:48.905Z,15
2019-04-09T06:35:29.790Z,15
2019-04-09T06:36:10.151Z,15
2019-04-09T06:36:50.168Z,15
2019-04-09T06:37:30.607Z,15
2019-04-09T06:38:11.307Z,15
2019-04-09T06:38:52.206Z,15
2019-04-09T06:39:32.563Z,15
2019-04-09T06:40:12.641Z,15
2019-04-09T06:40:53.070Z,15
2019-04-09T06:41:33.474Z,15
2019-04-09T06:42:14.939Z,15
2019-04-09T06:42:54.640Z,15
2019-04-09T06:43:35.645Z,15
2019-04-09T06:44:15.415Z,15
2019-04-09T06:44:56.183Z,15
2019-04-09T06:45:37.458Z,15
2019-04-09T06:46:17.852Z,15
2019-04-09T06:47:00.230Z,15
2019-04-09T06:47:40.561Z,15
2019-04-09T06:48:21.551Z,20
2019-04-09T06:49:01.798Z,20
2019-04-09T06:49:42.107Z,20
2019-04-09T06:50:24.906Z,20
2019-04-09T06:51:05.368Z,20
2019-04-09T06:51:49.627Z,20
2019-04-09T06:52:26.390Z,20
2019-04-09T06:53:06.658Z,20
2019-04-09T06:53:47.953Z,20
2019-04-09T06:54:28.335Z,20
2019-04-09T06:55:11.237Z,20
2019-04-09T06:55:49.876Z,15
2019-04-09T06:56:30.275Z,15
2019-04-09T06:57:11.425Z,15
2019-04-09T06:57:52.014Z,15
2019-04-09T06:58:32.507Z,15
2019-04-09T06:59:24.747Z,15
2019-04-09T06:59:54.755Z,15
2019-04-09T07:00:35.946Z,15
2019-04-09T07:01:15.420Z,15
2019-04-09T07:01:55.838Z,15
2019-04-09T07:02:36.222Z,15
2019-04-09T07:03:16.672Z,15
2019-04-09T07:04:00.421Z,15
2019-04-09T07:04:38.057Z,15
2019-04-09T07:05:18.533Z,15
2019-04-09T07:05:58.885Z,15
2019-04-09T07:06:39.900Z,15
2019-04-09T07:07:20.283Z,15
2019-04-09T07:08:01.422Z,15
2019-04-09T07:08:41.873Z,15
2019-04-09T07:09:23.037Z,15
2019-04-09T07:10:03.510Z,15
2019-04-09T07:10:43.191Z,15
2019-04-09T07:11:24.504Z,15
2019-04-09T07:12:04.564Z,15
2019-04-09T07:12:45.031Z,15
2019-04-09T07:13:25.305Z,15
2019-04-09T07:14:06.295Z,15
2019-04-09T07:14:46.635Z,15
2019-04-09T07:15:26.994Z,15
2019-04-09T07:16:07.447Z,15
2019-04-09T07:16:47.454Z,15
2019-04-09T07:17:27.873Z,15
2019-04-09T07:18:09.067Z,15
2019-04-09T07:18:48.714Z,15
2019-04-09T07:19:29.345Z,15
2019-04-09T07:20:11.656Z,15
2019-04-09T07:20:50.949Z,15
2019-04-09T07:21:31.404Z,15
2019-04-09T07:22:12.742Z,15
2019-04-09T07:22:53.241Z,15
2019-04-09T07:23:34.133Z,15
2019-04-09T07:24:13.923Z,15
2019-04-09T07:24:54.352Z,15
2019-04-09T07:25:34.484Z,15
2019-04-09T07:26:15.032Z,15
2019-04-09T07:26:57.953Z,15
2019-04-09T07:27:37.043Z,15
2019-04-09T07:28:17.075Z,15
2019-04-09T07:28:59.265Z,15
2019-04-09T07:29:50.239Z,15
2019-04-09T07:30:22.712Z,15
2019-04-09T07:31:03.346Z,15
2019-04-09T07:31:42.117Z,15
2019-04-09T07:32:21.533Z,15
2019-04-09T07:33:01.948Z,15
2019-04-09T07:33:44.017Z,20
2019-04-09T07:34:22.740Z,20
2019-04-09T07:35:04.299Z,20
2019-04-09T07:35:44.368Z,20
2019-04-09T07:36:24.634Z,20
2019-04-09T07:37:07.542Z,20
2019-04-09T07:37:46.437Z,20
2019-04-09T07:38:26.934Z,20
2019-04-09T07:39:07.690Z,20
2019-04-09T07:39:48.100Z,20
2019-04-09T07:40:29.017Z,20
2019-04-09T07:41:10.596Z,20
2019-04-09T07:41:51.007Z,20
2019-04-09T07:42:30.059Z,20
2019-04-09T07:43:10.490Z,20
2019-04-09T07:43:54.493Z,25
2019-04-09T07:44:32.044Z,25
2019-04-09T07:45:16.998Z,25
2019-04-09T07:45:52.270Z,25
2019-04-09T07:46:32.662Z,25
2019-04-09T07:47:18.842Z,25
2019-04-09T07:47:57.077Z,30
2019-04-09T07:48:36.569Z,30
2019-04-09T07:49:17.330Z,30
2019-04-09T07:49:58.975Z,30
2019-04-09T07:50:41.317Z,30
2019-04-09T07:51:20.684Z,30
2019-04-09T07:51:58.993Z,30
2019-04-09T07:52:39.945Z,30
2019-04-09T07:53:19.880Z,30
2019-04-09T07:54:04.489Z,30
2019-04-09T07:54:45.943Z,30
2019-04-09T07:55:23.452Z,30
2019-04-09T07:56:01.342Z,30
2019-04-09T07:56:41.739Z,30
2019-04-09T07:57:22.166Z,30
2019-04-09T08:00:07.221Z,35
2019-04-09T08:00:44.270Z,35
2019-04-09T08:01:21.681Z,35
2019-04-09T08:02:02.223Z,40
2019-04-09T08:02:44.153Z,45
2019-04-09T08:03:28.681Z,45
2019-04-09T08:04:07.698Z,45
2019-04-09T08:04:48.894Z,45
2019-04-09T08:05:27.870Z,45
2019-04-09T08:06:08.875Z,50
2019-04-09T08:06:50.150Z,45
2019-04-09T08:07:28.713Z,50
2019-04-09T08:08:09.365Z,50
2019-04-09T08:08:50.706Z,50
2019-04-09T08:09:31.850Z,50
2019-04-09T08:10:10.869Z,50
2019-04-09T08:10:52.615Z,50
2019-04-09T08:11:32.926Z,50
2019-04-09T08:12:14.500Z,50
2019-04-09T08:12:54.819Z,50
2019-04-09T08:13:35.316Z,50
2019-04-09T08:14:14.987Z,55
2019-04-09T08:14:59.973Z,55
2019-04-09T08:15:38.843Z,55
2019-04-09T08:16:19.041Z,50
2019-04-09T08:16:58.897Z,50
2019-04-09T08:17:43.091Z,45
2019-04-09T08:18:22.311Z,45
2019-04-09T08:19:01.878Z,45
2019-04-09T08:19:41.566Z,45
2019-04-09T08:20:25.688Z,45
2019-04-09T08:21:02.722Z,45
2019-04-09T08:21:46.129Z,45
2019-04-09T08:22:24.544Z,45
2019-04-09T08:23:04.951Z,45
2019-04-09T08:23:49.008Z,45
2019-04-09T08:24:26.877Z,40
2019-04-09T08:25:09.065Z,40
2019-04-09T08:25:50.431Z,40
2019-04-09T08:26:33.979Z,40
2019-04-09T08:27:12.428Z,40
2019-04-09T08:27:51.792Z,40
2019-04-09T08:28:32.821Z,40
2019-04-09T08:29:14.707Z,45
2019-04-09T08:29:56.492Z,45
2019-04-09T08:30:40.412Z,45
2019-04-09T08:31:16.378Z,45
2019-04-09T08:32:06.842Z,40
2019-04-09T08:32:39.254Z,40
2019-04-09T08:33:19.471Z,40
2019-04-09T08:33:58.593Z,40
2019-04-09T08:34:38.534Z,40
2019-04-09T08:35:19.790Z,40
2019-04-09T08:36:01.136Z,40
2019-04-09T08:36:39.931Z,35
2019-04-09T08:37:21.835Z,35
2019-04-09T08:38:02.403Z,35
2019-04-09T08:38:43.441Z,35
2019-04-09T08:39:23.049Z,35
2019-04-09T08:40:03.862Z,35
2019-04-09T08:40:47.561Z,35
2019-04-09T08:41:25.340Z,35
2019-04-09T08:42:04.967Z,35
2019-04-09T08:42:45.402Z,35
2019-04-09T08:43:28.710Z,35
2019-04-09T08:44:12.974Z,35
2019-04-09T08:44:51.152Z,35
2019-04-09T08:45:28.677Z,35
2019-04-09T08:46:09.292Z,35
2019-04-09T08:46:50.436Z,40
2019-04-09T08:47:33.273Z,40
2019-04-09T08:48:13.292Z,40
2019-04-09T08:48:51.611Z,40
2019-04-09T08:49:31.634Z,40
2019-04-09T08:50:12.505Z,35
2019-04-09T08:50:52.687Z,35
2019-04-09T08:51:35.897Z,35
2019-04-09T08:52:13.347Z,35
2019-04-09T08:52:53.760Z,40
2019-04-09T08:53:34.364Z,40
2019-04-09T08:54:16.747Z,40
2019-04-09T08:54:57.977Z,40
2019-04-09T08:55:38.810Z,40
2019-04-09T08:56:17.641Z,40
2019-04-09T08:56:57.790Z,40
2019-04-09T08:57:37.864Z,40
2019-04-09T08:58:22.609Z,40
2019-04-09T08:58:59.623Z,45
2019-04-09T08:59:39.577Z,45
2019-04-09T09:00:38.808Z,45
2019-04-09T09:01:56.519Z,45
2019-04-09T09:02:27.916Z,45
2019-04-09T09:05:06.105Z,45
2019-04-09T09:05:38.662Z,45
2019-04-09T09:06:20.150Z,45
2019-04-09T09:07:01.377Z,50
2019-04-09T09:07:41.139Z,50
2019-04-09T09:08:23.023Z,50
2019-04-09T09:09:03.333Z,55
2019-04-09T09:09:46.095Z,55
2019-04-09T09:10:24.212Z,60
2019-04-09T09:11:04.411Z,65
2019-04-09T09:11:45.482Z,70
2019-04-09T09:12:26.507Z,70
2019-04-09T09:13:10.246Z,70
2019-04-09T09:13:47.814Z,70
2019-04-09T09:14:28.910Z,70
2019-04-09T09:15:10.876Z,70
2019-04-09T09:15:54.205Z,70
2019-04-09T09:16:34.158Z,65
2019-04-09T09:17:14.747Z,65
2019-04-09T09:17:55.454Z,60
2019-04-09T09:18:38.009Z,60
2019-04-09T09:19:18.295Z,60
2019-04-09T09:20:01.960Z,55
2019-04-09T09:20:42.910Z,55
2019-04-09T09:21:29.074Z,55
2019-04-09T09:22:03.451Z,55
2019-04-09T09:22:43.010Z,55
2019-04-09T09:23:21.922Z,55
2019-04-09T09:24:02.597Z,55
2019-04-09T09:24:43.224Z,55
2019-04-09T09:25:26.493Z,60
2019-04-09T09:26:05.919Z,60
2019-04-09T09:26:46.859Z,60
2019-04-09T09:27:26.586Z,60
2019-04-09T09:28:06.247Z,65
2019-04-09T09:28:46.975Z,65
2019-04-09T09:29:27.619Z,65
2019-04-09T09:30:08.179Z,65
2019-04-09T09:30:59.765Z,65
2019-04-09T09:31:32.174Z,60
2019-04-09T09:32:09.895Z,60
2019-04-09T09:32:51.331Z,60
2019-04-09T09:33:34.852Z,60
2019-04-09T09:34:12.176Z,55
2019-04-09T09:34:59.313Z,55
2019-04-09T09:35:38.018Z,55
2019-04-09T09:36:18.594Z,60
2019-04-09T09:36:59.342Z,60
2019-04-09T09:37:40.651Z,60
2019-04-09T09:38:23.583Z,60
2019-04-09T09:39:03.184Z,60
2019-04-09T09:39:43.062Z,60
2019-04-09T09:40:23.897Z,60
2019-04-09T09:41:05.874Z,60
2019-04-09T09:41:44.782Z,60
2019-04-09T09:42:25.546Z,60
2019-04-09T09:43:06.043Z,60
2019-04-09T09:43:48.282Z,60
2019-04-09T09:44:27.159Z,60
2019-04-09T09:45:08.207Z,60
2019-04-09T09:45:48.222Z,60
2019-04-09T09:46:30.118Z,65
2019-04-09T09:47:11.910Z,65
2019-04-09T09:47:49.994Z,65
2019-04-09T09:48:30.045Z,65
2019-04-09T09:49:10.553Z,65
2019-04-09T09:49:50.984Z,65
2019-04-09T09:50:32.583Z,70
2019-04-09T09:51:13.330Z,70
2019-04-09T09:51:52.411Z,70
2019-04-09T09:52:32.809Z,70
2019-04-09T09:53:13.360Z,70
2019-04-09T09:53:55.075Z,70
2019-04-09T09:54:36.890Z,70
2019-04-09T09:55:17.956Z,70
2019-04-09T09:55:57.971Z,70
2019-04-09T09:56:37.415Z,70
2019-04-09T09:57:17.444Z,70
2019-04-09T09:57:57.008Z,70
2019-04-09T09:58:37.516Z,70
2019-04-09T09:59:22.443Z,70
2019-04-09T10:00:03.982Z,70
2019-04-09T10:00:41.005Z,70
2019-04-09T10:01:29.689Z,70
2019-04-09T10:02:06.315Z,70
2019-04-09T10:02:46.220Z,70
2019-04-09T10:03:27.854Z,70
2019-04-09T10:04:07.849Z,70
2019-04-09T10:04:49.459Z,70
2019-04-09T10:05:32.229Z,70
2019-04-09T10:06:14.628Z,70
2019-04-09T10:06:52.209Z,65
2019-04-09T10:07:39.574Z,65
2019-04-09T10:08:15.122Z,65
2019-04-09T10:08:52.847Z,65
2019-04-09T10:09:33.393Z,65
2019-04-09T10:10:14.903Z,65
2019-04-09T10:10:54.461Z,65
2019-04-09T10:11:37.416Z,65
2019-04-09T10:12:15.563Z,70
2019-04-09T10:13:00.038Z,65
2019-04-09T10:13:38.003Z,65
2019-04-09T10:14:17.921Z,65
2019-04-09T10:15:01.516Z,65
2019-04-09T10:15:41.527Z,65
2019-04-09T10:16:21.234Z,60
2019-04-09T10:17:00.690Z,65
2019-04-09T10:17:43.238Z,65
2019-04-09T10:18:21.655Z,65
2019-04-09T10:19:07.516Z,70
2019-04-09T10:19:42.520Z,70
2019-04-09T10:20:26.002Z,70
2019-04-09T10:21:04.594Z,70
2019-04-09T10:21:47.846Z,70
2019-04-09T10:22:25.780Z,65
2019-04-09T10:23:05.099Z,65
2019-04-09T10:23:46.276Z,70
2019-04-09T10:24:32.595Z,70
2019-04-09T10:25:09.608Z,70
2019-04-09T10:25:50.317Z,70
2019-04-09T10:26:31.539Z,70
2019-04-09T10:27:15.900Z,75
2019-04-09T10:27:56.087Z,75
2019-04-09T10:28:34.458Z,75
2019-04-09T10:29:15.938Z,75
2019-04-09T11:08:02.831Z,60
2019-04-09T11:08:41.467Z,60
2019-04-09T11:09:20.628Z,60
2019-04-09T11:10:03.785Z,60
2019-04-09T11:10:45.035Z,60
2019-04-09T11:11:24.654Z,60